createdAt,value
2019-02-07T00:02:11.398Z,31.95
2019-02-07T00:05:01.967Z,28.35
2019-02-07T00:07:52.093Z,29.18
2019-02-07T00:10:42.013Z,29.87
2019-02-07T00:13:32.096Z,31.02
2019-02-07T00:16:21.915Z,26.85
2019-02-07T00:19:12.384Z,30.05
2019-02-07T00:22:02.383Z,30.05
2019-02-07T00:24:53.316Z,30.35
2019-02-07T00:27:43.184Z,31.15
2019-02-07T00:30:33.396Z,30.82
2019-02-07T00:33:23.486Z,33.33
2019-02-07T00:36:15.977Z,29.02
2019-02-07T00:39:09.085Z,31.25
2019-02-07T00:41:59.454Z,29.20
2019-02-07T00:44:52.431Z,28.20
2019-02-07T00:47:41.205Z,28.30
2019-02-07T00:50:31.259Z,27.60
2019-02-07T00:53:21.373Z,27.48
2019-02-07T00:56:11.126Z,28.70
2019-02-07T00:59:00.813Z,31.33
2019-02-07T01:01:50.606Z,28.98
2019-02-07T01:04:40.595Z,28.05
2019-02-07T01:07:30.252Z,29.85
2019-02-07T01:10:22.475Z,28.05
2019-02-07T01:13:12.821Z,29.95
2019-02-07T01:16:03.015Z,26.95
2019-02-07T01:18:53.072Z,30.00
2019-02-07T01:21:44.113Z,31.25
2019-02-07T01:24:34.204Z,31.90
2019-02-07T01:27:24.131Z,33.67
2019-02-07T01:30:16.665Z,31.02
2019-02-07T01:33:06.286Z,30.05
2019-02-07T01:35:57.857Z,36.80
2019-02-07T01:38:47.952Z,33.38
2019-02-07T01:41:43.429Z,34.85
2019-02-07T01:44:33.561Z,33.48
2019-02-07T01:47:23.745Z,33.40
2019-02-07T01:50:15.132Z,33.35
2019-02-07T01:53:05.834Z,31.75
2019-02-07T01:55:56.152Z,32.40
2019-02-07T01:58:47.354Z,33.28
2019-02-07T02:01:37.461Z,33.85
2019-02-07T02:04:27.314Z,30.15
2019-02-07T02:07:16.716Z,30.70
2019-02-07T02:10:09.942Z,32.38
2019-02-07T02:12:59.852Z,30.45
2019-02-07T02:15:49.482Z,29.23
2019-02-07T02:18:39.193Z,28.62
2019-02-07T02:21:30.164Z,28.30
2019-02-07T02:24:19.870Z,29.85
2019-02-07T02:27:09.993Z,25.48
2019-02-07T02:30:00.273Z,25.90
2019-02-07T02:32:50.582Z,24.80
2019-02-07T02:35:40.850Z,26.15
2019-02-07T02:38:31.007Z,23.77
2019-02-07T02:41:20.753Z,25.92
2019-02-07T02:44:10.752Z,23.67
2019-02-07T02:47:01.017Z,24.45
2019-02-07T02:49:50.623Z,24.95
2019-02-07T02:52:40.783Z,27.20
2019-02-07T02:55:35.753Z,25.55
2019-02-07T02:58:26.641Z,27.50
2019-02-07T03:01:41.735Z,28.00
2019-02-07T03:04:50.557Z,28.50
2019-02-07T03:08:03.897Z,29.05
2019-02-07T03:11:27.975Z,28.98
2019-02-07T03:14:28.557Z,29.55
2019-02-07T03:17:30.565Z,33.23
2019-02-07T03:20:48.309Z,34.65
2019-02-07T03:24:06.250Z,31.33
2019-02-07T03:27:13.637Z,33.08
2019-02-07T03:30:22.159Z,32.00
2019-02-07T03:33:33.543Z,36.65
2019-02-07T03:36:36.531Z,35.15
2019-02-07T03:39:40.241Z,35.50
2019-02-07T03:42:47.736Z,35.85
2019-02-07T03:45:43.452Z,36.83
2019-02-07T03:48:50.335Z,35.90
2019-02-07T03:51:57.951Z,37.48
2019-02-07T03:55:05.834Z,33.28
2019-02-07T03:58:13.328Z,36.85
2019-02-07T04:01:22.569Z,36.03
2019-02-07T04:04:33.907Z,37.38
2019-02-07T04:07:43.186Z,33.15
2019-02-07T04:10:58.056Z,35.85
2019-02-07T04:14:05.350Z,38.25
2019-02-07T04:17:08.646Z,34.00
2019-02-07T04:20:17.366Z,32.67
2019-02-07T04:23:25.268Z,28.35
2019-02-07T04:26:33.991Z,29.05
2019-02-07T04:29:58.283Z,30.95
2019-02-07T04:33:06.389Z,30.20
2019-02-07T04:36:10.485Z,31.85
2019-02-07T04:39:22.301Z,26.80
2019-02-07T04:42:40.443Z,27.65
2019-02-07T04:45:52.341Z,29.80
2019-02-07T04:49:03.933Z,30.20
2019-02-07T04:52:18.909Z,28.73
2019-02-07T04:55:27.933Z,29.77
2019-02-07T04:58:32.256Z,29.50
2019-02-07T05:01:46.919Z,30.17
2019-02-07T05:04:47.521Z,27.60
2019-02-07T05:08:02.011Z,29.82
2019-02-07T05:11:26.307Z,28.83
2019-02-07T05:14:28.845Z,29.50
2019-02-07T05:17:56.133Z,32.58
2019-02-07T05:21:07.724Z,33.38
2019-02-07T05:24:14.092Z,33.65
2019-02-07T05:27:19.747Z,33.98
2019-02-07T05:30:39.950Z,35.23
2019-02-07T05:33:51.937Z,32.90
2019-02-07T05:37:04.634Z,35.92
2019-02-07T05:40:18.501Z,34.03
2019-02-07T05:43:42.478Z,31.73
2019-02-07T05:47:03.596Z,34.45
2019-02-07T05:50:15.597Z,35.43
2019-02-07T05:53:24.317Z,35.08
2019-02-07T05:56:42.361Z,34.33
2019-02-07T06:00:09.926Z,36.98
2019-02-07T06:03:34.214Z,38.13
2019-02-07T06:06:41.501Z,37.75
2019-02-07T06:09:54.017Z,39.38
2019-02-07T06:13:09.297Z,38.50
2019-02-07T06:16:24.056Z,43.92
2019-02-07T06:19:24.690Z,34.43
2019-02-07T06:22:52.050Z,42.45
2019-02-07T06:25:54.117Z,38.30
2019-02-07T06:28:51.989Z,38.65
2019-02-07T06:32:09.731Z,38.73
2019-02-07T06:35:18.653Z,41.83
2019-02-07T06:38:38.435Z,38.40
2019-02-07T06:41:38.007Z,40.90
2019-02-07T06:44:45.639Z,40.10
2019-02-07T06:48:00.306Z,38.08
2019-02-07T06:51:09.439Z,40.10
2019-02-07T06:54:36.492Z,38.05
2019-02-07T06:57:35.182Z,38.85
2019-02-07T07:00:43.905Z,39.15
2019-02-07T07:03:51.193Z,30.30
2019-02-07T07:07:00.221Z,39.03
2019-02-07T07:10:12.634Z,38.45
2019-02-07T07:13:20.228Z,37.67
2019-02-07T07:16:27.928Z,37.65
2019-02-07T07:19:52.116Z,36.42
2019-02-07T07:23:01.455Z,36.10
2019-02-07T07:26:13.247Z,31.57
2019-02-07T07:29:19.513Z,35.58
2019-02-07T07:32:31.616Z,35.70
2019-02-07T07:35:41.131Z,31.82
2019-02-07T07:38:49.063Z,31.10
2019-02-07T07:42:13.150Z,33.95
2019-02-07T07:45:24.942Z,27.93
2019-02-07T07:48:48.926Z,23.00
2019-02-07T07:52:03.696Z,29.07
2019-02-07T07:55:04.019Z,29.90
2019-02-07T07:58:03.834Z,31.62
2019-02-07T08:01:18.801Z,30.02
2019-02-07T08:04:36.640Z,28.17
2019-02-07T08:07:48.841Z,27.93
2019-02-07T08:10:50.811Z,26.82
2019-02-07T08:13:58.405Z,25.57
2019-02-07T08:17:10.511Z,28.20
2019-02-07T08:20:21.693Z,26.75
2019-02-07T08:23:20.786Z,30.57
2019-02-07T08:26:29.612Z,26.87
2019-02-07T08:29:48.647Z,30.75
2019-02-07T08:32:52.796Z,28.57
2019-02-07T08:35:59.942Z,28.92
2019-02-07T08:39:05.502Z,27.62
2019-02-07T08:42:16.711Z,27.13
2019-02-07T08:45:36.802Z,22.58
2019-02-07T08:48:54.288Z,23.80
2019-02-07T08:52:18.417Z,24.12
2019-02-07T08:55:28.985Z,25.32
2019-02-07T08:58:49.689Z,22.75
2019-02-07T09:02:07.219Z,24.75
2019-02-07T09:05:21.878Z,20.92
2019-02-07T09:08:29.579Z,22.80
2019-02-07T09:11:37.483Z,25.90
2019-02-07T09:14:45.695Z,23.95
2019-02-07T09:17:54.417Z,24.10
2019-02-07T09:21:02.733Z,21.77
2019-02-07T09:24:11.561Z,20.60
2019-02-07T09:27:18.950Z,24.23
2019-02-07T09:30:29.519Z,24.40
2019-02-07T09:33:32.301Z,23.77
2019-02-07T09:36:44.200Z,22.80
2019-02-07T09:40:02.346Z,24.25
2019-02-07T09:43:10.148Z,24.77
2019-02-07T09:46:25.606Z,24.23
2019-02-07T09:49:25.956Z,24.60
2019-02-07T09:52:25.564Z,23.38
2019-02-07T09:55:33.230Z,23.92
2019-02-07T09:58:31.542Z,22.22
2019-02-07T10:01:58.697Z,23.98
2019-02-07T10:05:01.791Z,24.37
2019-02-07T10:08:13.447Z,23.32
2019-02-07T10:11:40.842Z,25.10
2019-02-07T10:14:46.782Z,23.02
2019-02-07T10:17:54.080Z,26.42
2019-02-07T10:21:01.893Z,21.15
2019-02-07T10:24:11.012Z,28.30
2019-02-07T10:27:20.059Z,24.37
2019-02-07T10:30:44.960Z,24.27
2019-02-07T10:34:09.371Z,24.18
2019-02-07T10:37:20.941Z,23.92
2019-02-07T10:40:26.081Z,22.02
2019-02-07T10:43:33.267Z,23.70
2019-02-07T10:46:41.585Z,22.70
2019-02-07T10:49:58.977Z,22.67
2019-02-07T10:53:12.547Z,23.35
2019-02-07T10:56:20.453Z,21.20
2019-02-07T10:59:41.466Z,21.42
2019-02-07T11:02:50.669Z,22.73
2019-02-07T11:05:58.298Z,20.90
2019-02-07T11:09:05.999Z,20.88
2019-02-07T11:12:17.179Z,22.82
2019-02-07T11:15:26.821Z,22.93
2019-02-07T11:18:35.448Z,22.45
2019-02-07T11:21:39.538Z,24.25
2019-02-07T11:24:47.468Z,22.25
2019-02-07T11:27:55.165Z,22.13
2019-02-07T11:31:19.630Z,22.65
2019-02-07T11:34:27.355Z,21.60
2019-02-07T11:37:39.150Z,23.60
2019-02-07T11:40:50.539Z,22.42
2019-02-07T11:44:15.544Z,23.05
2019-02-07T11:47:27.710Z,21.82
2019-02-07T11:50:50.093Z,23.22
2019-02-07T11:54:10.634Z,23.27
2019-02-07T11:57:17.882Z,21.82
2019-02-07T12:00:31.524Z,20.88
2019-02-07T12:03:38.707Z,21.60
2019-02-07T12:06:46.511Z,22.82
2019-02-07T12:09:52.885Z,22.48
2019-02-07T12:13:11.125Z,22.67
2019-02-07T12:16:35.180Z,23.77
2019-02-07T12:19:42.068Z,24.40
2019-02-07T12:22:53.885Z,23.75
2019-02-07T12:26:01.895Z,23.45
2019-02-07T12:29:06.929Z,25.32
2019-02-07T12:32:14.322Z,22.55
2019-02-07T12:35:31.032Z,25.40
2019-02-07T12:38:48.615Z,20.65
2019-02-07T12:41:59.128Z,24.95
2019-02-07T12:45:08.054Z,23.40
2019-02-07T12:48:26.096Z,24.20
2019-02-07T12:51:37.485Z,25.92
2019-02-07T12:55:01.229Z,24.60
2019-02-07T12:58:21.921Z,25.52
2019-02-07T13:01:36.937Z,25.80
2019-02-07T13:04:49.736Z,24.27
2019-02-07T13:07:57.515Z,22.60
2019-02-07T13:11:05.364Z,22.65
2019-02-07T13:14:23.712Z,25.70
2019-02-07T13:17:32.636Z,24.85
2019-02-07T13:21:06.343Z,46.25
2019-02-07T13:24:13.636Z,20.10
2019-02-07T13:27:28.524Z,21.55
2019-02-07T13:30:47.641Z,18.87
2019-02-07T13:33:55.369Z,17.35
2019-02-07T13:37:02.952Z,17.80
2019-02-07T13:40:20.980Z,15.88
2019-02-07T13:43:26.021Z,13.32
2019-02-07T13:46:42.309Z,14.30
2019-02-07T13:50:00.986Z,12.07
2019-02-07T13:53:08.496Z,11.63
2019-02-07T13:56:21.192Z,12.25
2019-02-07T13:59:23.487Z,11.68
2019-02-07T14:02:32.428Z,12.23
2019-02-07T14:05:38.636Z,11.65
2019-02-07T14:08:56.932Z,12.40
2019-02-07T14:11:58.896Z,11.15
2019-02-07T14:15:13.821Z,10.88
2019-02-07T14:18:22.283Z,9.65
2019-02-07T14:21:25.067Z,11.63
2019-02-07T14:24:32.205Z,12.25
2019-02-07T14:27:56.029Z,9.80
2019-02-07T14:31:10.382Z,9.70
2019-02-07T14:34:29.449Z,11.20
2019-02-07T14:37:41.517Z,7.28
2019-02-07T14:40:48.853Z,7.80
2019-02-07T14:43:51.663Z,7.15
2019-02-07T14:46:49.291Z,7.55
2019-02-07T14:49:40.217Z,6.17
2019-02-07T14:52:29.789Z,6.37
2019-02-07T14:55:19.333Z,6.53
2019-02-07T14:58:09.056Z,6.80
2019-02-07T15:00:59.024Z,6.05
2019-02-07T15:03:48.721Z,5.30
2019-02-07T15:06:38.453Z,5.22
2019-02-07T15:09:28.056Z,5.37
2019-02-07T15:12:17.796Z,6.03
2019-02-07T15:15:08.982Z,4.58
2019-02-07T15:17:58.605Z,5.55
2019-02-07T15:20:48.723Z,5.22
2019-02-07T15:23:38.267Z,9.08
2019-02-07T15:26:27.995Z,6.00
2019-02-07T15:29:17.901Z,4.75
2019-02-07T15:32:07.912Z,6.83
2019-02-07T15:34:57.891Z,4.50
2019-02-07T15:37:47.980Z,6.50
2019-02-07T15:40:38.062Z,4.67
2019-02-07T15:43:28.253Z,3.35
2019-02-07T15:46:18.255Z,3.83
2019-02-07T15:49:08.055Z,4.03
2019-02-07T15:51:57.700Z,3.85
2019-02-07T15:54:47.566Z,3.47
2019-02-07T15:57:37.171Z,3.33
2019-02-07T16:00:44.759Z,2.85
2019-02-07T16:03:40.270Z,3.87
2019-02-07T16:06:29.963Z,6.72
2019-02-07T16:09:20.340Z,3.90
2019-02-07T16:12:10.718Z,4.78
2019-02-07T16:15:01.487Z,3.95
2019-02-07T16:17:52.163Z,3.50
2019-02-07T16:20:48.866Z,4.33
2019-02-07T16:23:33.879Z,3.20
2019-02-07T16:26:23.743Z,4.35
2019-02-07T16:29:13.616Z,3.00
2019-02-07T16:32:03.716Z,5.03
2019-02-07T16:34:53.812Z,4.33
2019-02-07T16:37:43.482Z,4.12
2019-02-07T16:40:33.291Z,3.27
2019-02-07T16:43:22.819Z,4.67
2019-02-07T16:46:12.941Z,4.55
2019-02-07T16:49:02.701Z,4.00
2019-02-07T16:51:52.853Z,3.90
2019-02-07T16:54:42.895Z,3.85
2019-02-07T16:57:33.455Z,3.80
2019-02-07T17:00:24.871Z,4.17
2019-02-07T17:03:16.305Z,3.72
2019-02-07T17:06:07.923Z,3.72
2019-02-07T17:09:00.024Z,3.42
2019-02-07T17:11:50.061Z,4.10
2019-02-07T17:14:39.932Z,3.33
2019-02-07T17:17:29.764Z,4.35
2019-02-07T17:20:29.960Z,4.30
2019-02-07T17:23:19.881Z,3.80
2019-02-07T17:26:09.851Z,2.80
2019-02-07T17:28:59.534Z,3.70
2019-02-07T17:31:49.807Z,4.00
2019-02-07T17:34:39.383Z,3.58
2019-02-07T17:37:29.055Z,4.35
2019-02-07T17:40:19.764Z,4.00
2019-02-07T17:43:09.265Z,2.47
2019-02-07T17:45:59.114Z,6.30
2019-02-07T17:48:48.938Z,3.80
2019-02-07T17:51:39.182Z,4.15
2019-02-07T17:54:28.656Z,4.95
2019-02-07T17:57:18.923Z,3.65
2019-02-07T18:00:32.189Z,3.55
2019-02-07T18:03:21.664Z,3.17
2019-02-07T18:06:11.560Z,3.42
2019-02-07T18:09:01.723Z,3.08
2019-02-07T18:11:53.286Z,2.95
2019-02-07T18:14:43.084Z,3.30
2019-02-07T18:17:32.876Z,3.55
2019-02-07T18:20:23.195Z,4.72
2019-02-07T18:23:13.009Z,6.58
2019-02-07T18:26:02.800Z,3.50
2019-02-07T18:28:52.266Z,3.67
2019-02-07T18:31:41.940Z,3.77
2019-02-07T18:34:31.700Z,4.25
2019-02-07T18:37:21.390Z,2.58
2019-02-07T18:40:14.694Z,3.30
2019-02-07T18:43:05.316Z,3.05
2019-02-07T18:45:55.348Z,3.95
2019-02-07T18:48:46.648Z,3.22
2019-02-07T18:51:45.140Z,3.67
2019-02-07T18:54:28.351Z,2.92
2019-02-07T18:57:18.092Z,4.85
2019-02-07T19:00:10.044Z,4.10
2019-02-07T19:03:00.283Z,4.87
2019-02-07T19:05:50.469Z,5.33
2019-02-07T19:08:40.253Z,4.22
2019-02-07T19:11:30.937Z,3.37
2019-02-07T19:14:21.014Z,4.20
2019-02-07T19:17:10.705Z,4.75
2019-02-07T19:20:00.344Z,4.15
2019-02-07T19:22:49.974Z,3.00
2019-02-07T19:25:39.604Z,3.58
2019-02-07T19:28:29.762Z,4.17
2019-02-07T19:31:19.782Z,3.30
2019-02-07T19:34:09.376Z,2.95
2019-02-07T19:36:59.022Z,2.70
2019-02-07T19:39:49.021Z,2.85
2019-02-07T19:42:39.121Z,3.10
2019-02-07T19:45:29.003Z,2.58
2019-02-07T19:48:18.591Z,2.85
2019-02-07T19:51:08.591Z,2.50
2019-02-07T19:53:58.390Z,2.30
2019-02-07T19:56:48.353Z,2.80
2019-02-07T19:59:37.933Z,2.98
2019-02-07T20:02:27.704Z,2.40
2019-02-07T20:05:17.821Z,1.82
2019-02-07T20:08:07.943Z,2.27
2019-02-07T20:10:58.004Z,2.70
2019-02-07T20:13:47.553Z,2.90
2019-02-07T20:16:37.611Z,2.60
2019-02-07T20:19:27.603Z,3.10
2019-02-07T20:22:20.252Z,2.70
2019-02-07T20:25:10.629Z,2.87
2019-02-07T20:28:01.035Z,2.27
2019-02-07T20:33:41.093Z,2.72
2019-02-07T20:36:32.515Z,2.42
2019-02-07T20:39:22.026Z,2.70
2019-02-07T20:42:12.175Z,3.02
2019-02-07T20:45:02.116Z,3.10
2019-02-07T20:47:52.446Z,3.35
2019-02-07T20:50:42.067Z,2.62
2019-02-07T20:53:31.811Z,3.17
2019-02-07T20:56:21.534Z,4.78
2019-02-07T20:59:11.555Z,3.47
2019-02-07T21:02:01.233Z,3.15
2019-02-07T21:04:51.231Z,3.15
2019-02-07T21:07:41.451Z,3.80
2019-02-07T21:10:32.211Z,4.65
2019-02-07T21:13:22.123Z,4.50
2019-02-07T21:16:12.018Z,5.22
2019-02-07T21:19:01.972Z,4.25
2019-02-07T21:21:51.747Z,5.40
2019-02-07T21:24:41.633Z,4.80
2019-02-07T21:27:31.265Z,4.17
2019-02-07T21:30:23.451Z,5.17
2019-02-07T21:33:13.255Z,4.90
2019-02-07T21:36:03.236Z,7.37
2019-02-07T21:38:53.572Z,5.95
2019-02-07T21:41:43.293Z,6.20
2019-02-07T21:44:34.012Z,5.80
2019-02-07T21:47:24.063Z,7.42
2019-02-07T21:50:16.424Z,5.40
2019-02-07T21:53:06.295Z,4.40
2019-02-07T21:55:56.215Z,7.05
2019-02-07T21:58:46.487Z,6.17
2019-02-07T22:01:36.661Z,6.53
2019-02-07T22:04:26.636Z,7.05
2019-02-07T22:07:16.355Z,7.10
2019-02-07T22:10:07.175Z,7.85
2019-02-07T22:12:57.354Z,6.87
2019-02-07T22:15:47.402Z,6.85
2019-02-07T22:18:37.385Z,6.17
2019-02-07T22:21:27.236Z,6.40
2019-02-07T22:24:16.873Z,6.37
2019-02-07T22:27:06.471Z,6.70
2019-02-07T22:29:56.603Z,5.47
2019-02-07T22:32:46.788Z,6.08
2019-02-07T22:35:36.674Z,8.23
2019-02-07T22:38:26.638Z,6.37
2019-02-07T22:41:16.535Z,6.53
2019-02-07T22:44:06.683Z,6.85
2019-02-07T22:46:56.514Z,7.55
2019-02-07T22:49:46.488Z,7.33
2019-02-07T22:52:36.107Z,5.72
2019-02-07T22:55:25.742Z,6.35
2019-02-07T22:58:15.640Z,5.70
2019-02-07T23:01:45.825Z,4.90
2019-02-07T23:04:35.527Z,3.52
2019-02-07T23:07:25.775Z,4.20
2019-02-07T23:10:15.351Z,4.03
2019-02-07T23:13:06.036Z,7.37
2019-02-07T23:15:57.178Z,5.75
2019-02-07T23:18:47.024Z,5.70
2019-02-07T23:21:36.871Z,6.05
2019-02-07T23:24:27.595Z,7.20
2019-02-07T23:27:17.380Z,6.72
2019-02-07T23:30:09.357Z,5.85
2019-02-07T23:32:59.996Z,8.20
2019-02-07T23:35:49.941Z,5.85
2019-02-07T23:38:40.034Z,6.35
2019-02-07T23:41:30.206Z,6.33
2019-02-07T23:44:20.531Z,7.30
2019-02-07T23:47:10.345Z,5.80
2019-02-07T23:50:00.925Z,5.70
2019-02-07T23:52:51.097Z,5.95
2019-02-07T23:55:41.071Z,5.83
2019-02-07T23:58:30.886Z,6.45
